createdAt,value
2022-09-25T00:01:03.623Z,15.98
2022-09-25T00:03:31.351Z,15.02
2022-09-25T00:06:04.148Z,14.70
2022-09-25T00:08:31.775Z,14.48
2022-09-25T00:10:58.875Z,14.43
2022-09-25T00:13:26.392Z,15.02
2022-09-25T00:15:56.162Z,14.93
2022-09-25T00:18:43.158Z,16.30
2022-09-25T00:21:14.284Z,15.70
2022-09-25T00:23:43.678Z,15.75
2022-09-25T00:26:12.742Z,15.98
2022-09-25T00:28:40.929Z,15.98
2022-09-25T00:31:10.315Z,15.93
2022-09-25T00:33:37.890Z,15.50
2022-09-25T00:36:08.226Z,15.43
2022-09-25T00:38:37.024Z,16.05
2022-09-25T00:41:06.701Z,16.73
2022-09-25T00:43:37.893Z,15.98
2022-09-25T00:46:11.238Z,17.40
2022-09-25T00:48:47.502Z,15.93
2022-09-25T00:51:16.305Z,17.20
2022-09-25T00:53:43.618Z,16.73
2022-09-25T00:56:13.081Z,16.50
2022-09-25T00:58:41.356Z,16.27
2022-09-25T01:01:09.691Z,17.02
2022-09-25T01:03:37.592Z,17.45
2022-09-25T01:06:04.858Z,17.38
2022-09-25T01:08:33.363Z,17.00
2022-09-25T01:11:00.869Z,17.42
2022-09-25T01:13:29.973Z,17.45
2022-09-25T01:16:08.333Z,17.40
2022-09-25T01:18:46.361Z,16.30
2022-09-25T01:21:17.586Z,16.38
2022-09-25T01:24:00.145Z,16.35
2022-09-25T01:26:39.436Z,16.63
2022-09-25T01:29:37.523Z,15.82
2022-09-25T01:32:20.403Z,16.63
2022-09-25T01:34:55.509Z,16.55
2022-09-25T01:37:29.989Z,15.60
2022-09-25T01:40:07.994Z,16.80
2022-09-25T01:42:42.353Z,16.27
2022-09-25T01:45:15.103Z,16.17
2022-09-25T01:47:45.748Z,15.43
2022-09-25T01:50:30.933Z,16.15
2022-09-25T01:53:01.420Z,16.33
2022-09-25T01:55:38.693Z,17.52
2022-09-25T01:58:32.073Z,18.23
2022-09-25T02:01:06.850Z,17.45
2022-09-25T02:03:50.824Z,17.25
2022-09-25T02:06:21.140Z,19.23
2022-09-25T02:09:06.315Z,17.70
2022-09-25T02:11:40.004Z,18.75
2022-09-25T02:14:19.259Z,20.10
2022-09-25T02:16:49.548Z,18.52
2022-09-25T02:19:36.742Z,20.48
2022-09-25T02:22:06.445Z,18.95
2022-09-25T02:24:53.121Z,18.77
2022-09-25T02:27:26.241Z,18.60
2022-09-25T02:29:53.818Z,18.70
2022-09-25T02:32:26.353Z,20.27
2022-09-25T02:34:53.430Z,18.48
2022-09-25T02:37:20.688Z,18.83
2022-09-25T02:39:52.889Z,19.00
2022-09-25T02:42:30.989Z,19.77
2022-09-25T02:45:04.124Z,19.50
2022-09-25T02:47:37.144Z,19.40
2022-09-25T02:50:12.953Z,19.88
2022-09-25T02:52:59.435Z,18.17
2022-09-25T02:55:40.910Z,18.42
2022-09-25T02:58:13.903Z,19.25
2022-09-25T03:00:43.895Z,19.15
2022-09-25T03:03:15.004Z,20.58
2022-09-25T03:05:42.356Z,20.30
2022-09-25T03:08:28.163Z,21.05
2022-09-25T03:10:55.204Z,20.42
2022-09-25T03:13:26.697Z,20.52
2022-09-25T03:15:59.685Z,21.08
2022-09-25T03:18:28.671Z,19.80
2022-09-25T03:20:55.658Z,20.05
2022-09-25T03:23:22.636Z,20.20
2022-09-25T03:25:50.515Z,20.17
2022-09-25T03:28:17.541Z,20.60
2022-09-25T03:30:45.807Z,19.90
2022-09-25T03:33:13.639Z,21.45
2022-09-25T03:35:41.044Z,19.63
2022-09-25T03:38:08.872Z,20.40
2022-09-25T03:40:35.863Z,19.33
2022-09-25T03:45:28.942Z,19.63
2022-09-25T03:47:56.128Z,20.13
2022-09-25T03:50:23.086Z,19.17
2022-09-25T03:52:50.190Z,17.60
2022-09-25T03:55:17.305Z,18.92
2022-09-25T03:57:44.230Z,18.88
2022-09-25T04:00:11.892Z,17.80
2022-09-25T04:02:38.943Z,17.85
2022-09-25T04:05:07.191Z,16.75
2022-09-25T04:07:34.488Z,18.48
2022-09-25T04:10:01.808Z,17.60
2022-09-25T04:12:28.737Z,18.33
2022-09-25T04:14:55.850Z,19.27
2022-09-25T04:17:22.823Z,18.02
2022-09-25T04:19:49.806Z,20.73
2022-09-25T04:22:16.742Z,18.48
2022-09-25T04:24:49.657Z,19.85
2022-09-25T04:27:19.339Z,18.85
2022-09-25T04:29:46.883Z,20.92
2022-09-25T04:32:34.531Z,19.77
2022-09-25T04:35:02.202Z,20.38
2022-09-25T04:37:29.674Z,20.25
2022-09-25T04:39:57.516Z,19.67
2022-09-25T04:42:25.496Z,19.05
2022-09-25T04:44:54.219Z,18.27
2022-09-25T04:47:22.766Z,20.05
2022-09-25T04:49:49.757Z,18.27
2022-09-25T04:52:18.847Z,19.58
2022-09-25T04:54:46.466Z,18.00
2022-09-25T04:57:38.809Z,17.30
2022-09-25T05:00:07.059Z,18.92
2022-09-25T05:02:34.123Z,19.13
2022-09-25T05:05:01.189Z,21.25
2022-09-25T05:07:28.632Z,20.48
2022-09-25T05:09:55.629Z,21.17
2022-09-25T05:12:22.662Z,21.13
2022-09-25T05:14:50.044Z,20.02
2022-09-25T05:17:17.111Z,20.23
2022-09-25T05:19:44.218Z,20.70
2022-09-25T05:22:11.316Z,20.70
2022-09-25T05:24:38.717Z,20.10
2022-09-25T05:27:05.716Z,20.58
2022-09-25T05:29:32.646Z,19.38
2022-09-25T05:32:00.616Z,20.67
2022-09-25T05:34:28.070Z,20.48
2022-09-25T05:36:55.202Z,20.77
2022-09-25T05:39:22.384Z,20.40
2022-09-25T05:41:49.383Z,19.63
2022-09-25T05:44:16.694Z,20.92
2022-09-25T05:46:43.858Z,20.00
2022-09-25T05:49:11.041Z,18.38
2022-09-25T05:51:37.981Z,19.92
2022-09-25T05:54:04.918Z,21.20
2022-09-25T05:56:32.139Z,19.13
2022-09-25T05:58:59.315Z,21.00
2022-09-25T06:01:26.473Z,24.30
2022-09-25T06:03:53.505Z,21.90
2022-09-25T06:06:25.198Z,21.00
2022-09-25T06:08:54.969Z,19.73
2022-09-25T06:11:22.549Z,19.90
2022-09-25T06:13:54.202Z,19.90
2022-09-25T06:16:21.954Z,22.20
2022-09-25T06:18:49.055Z,21.23
2022-09-25T06:21:16.150Z,21.98
2022-09-25T06:23:47.084Z,22.80
2022-09-25T06:26:14.311Z,19.75
2022-09-25T06:28:41.385Z,19.70
2022-09-25T06:31:08.752Z,18.10
2022-09-25T06:33:35.831Z,15.90
2022-09-25T06:36:05.124Z,17.10
2022-09-25T06:38:34.452Z,17.55
2022-09-25T06:41:01.970Z,17.10
2022-09-25T06:43:29.508Z,27.27
2022-09-25T06:46:00.264Z,22.90
2022-09-25T06:48:27.192Z,16.55
2022-09-25T06:50:56.182Z,17.75
2022-09-25T06:53:25.639Z,19.75
2022-09-25T06:55:56.059Z,21.27
2022-09-25T06:58:24.048Z,19.95
2022-09-25T07:00:52.711Z,19.52
2022-09-25T07:03:40.425Z,18.70
2022-09-25T07:06:10.060Z,21.83
2022-09-25T07:08:37.575Z,15.63
2022-09-25T07:11:05.717Z,15.55
2022-09-25T07:13:35.186Z,14.45
2022-09-25T07:16:27.539Z,16.00
2022-09-25T07:18:57.473Z,15.48
2022-09-25T07:21:25.936Z,16.02
2022-09-25T07:23:53.696Z,16.08
2022-09-25T07:26:29.029Z,16.70
2022-09-25T07:29:02.363Z,15.40
2022-09-25T07:31:31.918Z,13.35
2022-09-25T07:34:02.863Z,14.30
2022-09-25T07:36:30.032Z,13.45
2022-09-25T07:38:56.965Z,14.65
2022-09-25T07:41:24.468Z,13.68
2022-09-25T07:46:46.518Z,12.95
2022-09-25T07:49:13.881Z,16.30
2022-09-25T07:51:40.905Z,16.58
2022-09-25T07:54:08.054Z,17.83
2022-09-25T07:56:35.213Z,20.20
2022-09-25T07:59:02.308Z,17.08
2022-09-25T08:01:29.343Z,16.95
2022-09-25T08:03:56.809Z,15.73
2022-09-25T08:06:23.800Z,16.08
2022-09-25T08:08:50.843Z,15.77
2022-09-25T08:11:18.486Z,13.13
2022-09-25T08:13:46.816Z,14.73
2022-09-25T08:16:19.126Z,15.98
2022-09-25T08:18:47.339Z,16.00
2022-09-25T08:21:19.538Z,15.18
2022-09-25T08:23:52.306Z,15.52
2022-09-25T08:26:21.360Z,15.10
2022-09-25T08:28:48.658Z,14.43
2022-09-25T08:31:15.825Z,22.60
2022-09-25T08:33:47.377Z,14.50
2022-09-25T08:36:16.306Z,14.43
2022-09-25T08:38:43.644Z,15.40
2022-09-25T08:41:23.914Z,14.85
2022-09-25T08:44:05.036Z,13.40
2022-09-25T08:47:02.038Z,13.50
2022-09-25T08:49:35.390Z,13.38
2022-09-25T08:52:08.406Z,12.20
2022-09-25T08:54:36.468Z,10.95
2022-09-25T08:57:18.179Z,9.48
2022-09-25T08:59:49.687Z,9.82
2022-09-25T09:02:20.706Z,9.35
2022-09-25T09:04:51.259Z,9.70
2022-09-25T09:07:27.235Z,9.02
2022-09-25T09:10:08.325Z,10.60
2022-09-25T09:12:43.334Z,9.93
2022-09-25T09:15:37.383Z,10.25
2022-09-25T09:18:23.807Z,10.15
2022-09-25T09:20:55.281Z,11.02
2022-09-25T09:23:25.200Z,9.80
2022-09-25T09:26:10.399Z,9.02
2022-09-25T09:28:49.170Z,10.65
2022-09-25T09:31:36.375Z,10.25
2022-09-25T09:34:46.609Z,9.32
2022-09-25T09:37:16.190Z,9.57
2022-09-25T09:39:47.458Z,10.10
2022-09-25T09:42:40.829Z,8.60
2022-09-25T09:45:14.986Z,9.98
2022-09-25T09:47:47.451Z,9.45
2022-09-25T09:50:24.287Z,9.63
2022-09-25T09:52:59.443Z,9.02
2022-09-25T09:55:46.325Z,8.10
2022-09-25T09:58:30.880Z,7.47
2022-09-25T10:01:06.958Z,7.25
2022-09-25T10:03:45.278Z,7.95
2022-09-25T10:06:19.125Z,7.72
2022-09-25T10:08:49.390Z,5.72
2022-09-25T10:11:19.131Z,6.45
2022-09-25T10:13:47.050Z,6.45
2022-09-25T10:16:20.304Z,5.80
2022-09-25T10:19:02.647Z,5.80
2022-09-25T10:21:37.781Z,6.55
2022-09-25T10:24:05.072Z,6.80
2022-09-25T10:26:40.917Z,7.90
2022-09-25T10:29:19.779Z,9.30
2022-09-25T10:31:47.430Z,8.80
2022-09-25T10:34:16.462Z,8.30
2022-09-25T10:36:52.141Z,8.93
2022-09-25T10:39:46.086Z,9.32
2022-09-25T10:42:35.192Z,10.30
2022-09-25T10:45:32.614Z,11.00
2022-09-25T10:48:18.796Z,10.50
2022-09-25T10:51:05.480Z,10.48
2022-09-25T10:53:32.378Z,11.55
2022-09-25T10:56:05.733Z,11.73
2022-09-25T10:58:41.420Z,11.50
2022-09-25T11:01:13.606Z,10.52
2022-09-25T11:03:51.468Z,10.35
2022-09-25T11:06:24.505Z,11.52
2022-09-25T11:09:12.157Z,10.50
2022-09-25T11:11:41.108Z,10.35
2022-09-25T11:14:32.997Z,10.93
2022-09-25T11:17:02.357Z,10.32
2022-09-25T11:19:31.803Z,10.25
2022-09-25T11:22:17.081Z,9.90
2022-09-25T11:24:58.570Z,9.57
2022-09-25T11:27:36.948Z,10.05
2022-09-25T11:30:10.464Z,9.18
2022-09-25T11:32:58.985Z,9.38
2022-09-25T11:35:55.876Z,10.13
2022-09-25T11:39:05.625Z,8.82
2022-09-25T11:42:01.695Z,8.38
2022-09-25T11:44:37.782Z,9.18
2022-09-25T11:47:16.384Z,8.85
2022-09-25T11:49:43.702Z,6.45
2022-09-25T11:52:14.159Z,7.03
2022-09-25T11:55:03.120Z,6.53
2022-09-25T11:57:49.792Z,7.25
2022-09-25T12:00:26.442Z,7.20
2022-09-25T12:03:16.582Z,6.95
2022-09-25T12:06:49.175Z,6.32
2022-09-25T12:09:37.832Z,6.80
2022-09-25T12:12:15.684Z,5.15
2022-09-25T12:15:19.135Z,5.28
2022-09-25T12:18:01.236Z,6.65
2022-09-25T12:20:58.129Z,5.20
2022-09-25T12:23:29.546Z,5.70
2022-09-25T12:25:56.489Z,6.07
2022-09-25T12:28:40.848Z,5.53
2022-09-25T12:31:27.332Z,5.30
2022-09-25T12:34:27.860Z,5.50
2022-09-25T12:37:23.060Z,5.47
2022-09-25T12:39:59.974Z,5.90
2022-09-25T12:42:50.403Z,5.25
2022-09-25T12:45:28.259Z,4.93
2022-09-25T12:48:22.505Z,5.65
2022-09-25T12:51:06.485Z,5.15
2022-09-25T12:53:39.689Z,5.03
2022-09-25T12:56:17.021Z,4.32
2022-09-25T12:58:52.170Z,5.65
2022-09-25T13:01:35.382Z,4.47
2022-09-25T13:04:17.012Z,5.38
2022-09-25T13:06:53.136Z,5.72
2022-09-25T13:09:23.208Z,5.60
2022-09-25T13:12:05.073Z,5.55
2022-09-25T13:15:00.274Z,5.22
2022-09-25T13:17:27.464Z,5.32
2022-09-25T13:19:54.513Z,5.50
2022-09-25T13:22:26.075Z,5.15
2022-09-25T13:25:03.550Z,5.47
2022-09-25T13:27:40.233Z,4.97
2022-09-25T13:30:20.277Z,5.78
2022-09-25T13:33:03.045Z,5.75
2022-09-25T13:35:33.105Z,5.88
2022-09-25T13:38:40.081Z,6.53
2022-09-25T13:41:13.791Z,5.88
2022-09-25T13:43:40.966Z,6.13
2022-09-25T13:46:34.868Z,6.38
2022-09-25T13:49:34.051Z,5.57
2022-09-25T13:52:03.125Z,5.25
2022-09-25T13:54:33.999Z,4.97
2022-09-25T13:57:00.980Z,5.13
2022-09-25T13:59:38.633Z,10.02
2022-09-25T14:02:43.425Z,5.90
2022-09-25T14:05:16.830Z,5.07
2022-09-25T14:07:48.420Z,4.63
2022-09-25T14:10:18.619Z,4.55
2022-09-25T14:12:48.370Z,5.60
2022-09-25T14:15:35.705Z,4.68
2022-09-25T14:18:08.854Z,5.60
2022-09-25T14:20:38.459Z,4.85
2022-09-25T14:23:14.424Z,4.53
2022-09-25T14:25:45.683Z,4.95
2022-09-25T14:28:27.110Z,4.53
2022-09-25T14:31:22.657Z,4.30
2022-09-25T14:34:26.621Z,4.57
2022-09-25T14:40:21.338Z,3.13
2022-09-25T14:43:27.513Z,3.13
2022-09-25T14:46:00.493Z,3.08
2022-09-25T14:48:36.393Z,3.17
2022-09-25T14:51:08.314Z,2.70
2022-09-25T14:53:47.980Z,3.03
2022-09-25T14:56:15.858Z,3.10
2022-09-25T14:59:07.631Z,2.97
2022-09-25T15:01:35.585Z,2.30
2022-09-25T15:04:06.047Z,2.50
2022-09-25T15:06:36.421Z,3.08
2022-09-25T15:09:29.789Z,2.72
2022-09-25T15:11:58.004Z,3.80
2022-09-25T15:14:25.859Z,3.92
2022-09-25T15:17:12.022Z,2.92
2022-09-25T15:19:46.727Z,2.70
2022-09-25T15:22:20.970Z,2.67
2022-09-25T15:24:55.252Z,2.80
2022-09-25T15:27:23.832Z,2.75
2022-09-25T15:29:53.006Z,2.67
2022-09-25T15:32:28.956Z,2.78
2022-09-25T15:35:07.470Z,3.85
2022-09-25T15:37:34.620Z,4.43
2022-09-25T15:40:14.760Z,3.63
2022-09-25T15:42:46.356Z,4.63
2022-09-25T15:45:47.173Z,4.32
2022-09-25T15:48:31.366Z,4.07
2022-09-25T15:51:01.645Z,4.13
2022-09-25T15:53:33.163Z,4.22
2022-09-25T15:56:17.385Z,4.63
2022-09-25T15:58:48.813Z,4.40
2022-09-25T16:01:39.834Z,4.30
2022-09-25T16:04:28.835Z,3.80
2022-09-25T16:06:55.902Z,3.75
2022-09-25T16:09:34.342Z,4.00
2022-09-25T16:12:30.271Z,6.00
2022-09-25T16:14:58.778Z,5.00
2022-09-25T16:17:41.552Z,49.78
2022-09-25T16:20:32.494Z,6.32
2022-09-25T16:23:04.589Z,17.50
2022-09-25T16:25:34.518Z,4.43
2022-09-25T16:28:32.434Z,5.45
2022-09-25T16:31:05.049Z,95.00
2022-09-25T16:33:42.463Z,8.05
2022-09-25T16:36:17.652Z,27.60
2022-09-25T16:39:11.281Z,76.43
2022-09-25T16:41:48.737Z,103.43
2022-09-25T16:44:35.874Z,127.32
2022-09-25T16:47:16.668Z,43.20
2022-09-25T16:49:45.045Z,17.75
2022-09-25T16:52:20.685Z,9.75
2022-09-25T16:54:53.250Z,4.70
2022-09-25T16:57:22.916Z,8.52
2022-09-25T16:59:50.578Z,6.30
2022-09-25T17:02:32.995Z,7.82
2022-09-25T17:05:31.125Z,7.07
2022-09-25T17:08:03.839Z,3.80
2022-09-25T17:10:32.281Z,6.18
2022-09-25T17:13:01.665Z,5.03
2022-09-25T17:15:36.472Z,4.90
2022-09-25T17:18:07.365Z,3.95
2022-09-25T17:20:35.244Z,4.07
2022-09-25T17:23:02.383Z,4.32
2022-09-25T17:25:40.145Z,9.60
2022-09-25T17:28:09.039Z,4.60
2022-09-25T17:30:36.930Z,4.22
2022-09-25T17:33:06.720Z,5.57
2022-09-25T17:36:00.226Z,6.65
2022-09-25T17:38:27.680Z,5.35
2022-09-25T17:41:00.471Z,4.70
2022-09-25T17:43:30.279Z,5.07
2022-09-25T17:45:58.903Z,5.72
2022-09-25T17:48:30.833Z,4.13
2022-09-25T17:51:10.577Z,4.30
2022-09-25T17:53:37.964Z,4.40
2022-09-25T17:56:05.179Z,5.53
2022-09-25T17:58:32.442Z,5.25
2022-09-25T18:01:00.826Z,4.82
2022-09-25T18:03:28.623Z,4.90
2022-09-25T18:05:55.668Z,4.60
2022-09-25T18:08:22.600Z,4.30
2022-09-25T18:10:53.648Z,4.25
2022-09-25T18:13:20.613Z,4.35
2022-09-25T18:15:58.121Z,4.65
2022-09-25T18:18:25.687Z,4.32
2022-09-25T18:21:11.290Z,4.50
2022-09-25T18:23:39.208Z,4.43
2022-09-25T18:26:09.073Z,4.70
2022-09-25T18:28:37.104Z,4.68
2022-09-25T18:31:04.109Z,4.65
2022-09-25T18:33:31.422Z,4.40
2022-09-25T18:35:58.618Z,4.40
2022-09-25T18:38:26.257Z,4.50
2022-09-25T18:40:54.106Z,4.85
2022-09-25T18:43:21.644Z,4.07
2022-09-25T18:45:53.018Z,5.00
2022-09-25T18:48:21.519Z,4.40
2022-09-25T18:50:52.872Z,3.28
2022-09-25T18:53:19.806Z,3.08
2022-09-25T18:55:46.801Z,3.30
2022-09-25T18:58:14.217Z,2.75
2022-09-25T19:00:42.731Z,3.50
2022-09-25T19:03:10.301Z,3.42
2022-09-25T19:05:37.478Z,3.25
2022-09-25T19:08:05.243Z,3.33
2022-09-25T19:10:35.940Z,3.03
2022-09-25T19:13:04.262Z,3.05
2022-09-25T19:15:31.559Z,2.83
2022-09-25T19:18:00.044Z,2.78
2022-09-25T19:20:28.072Z,2.80
2022-09-25T19:22:56.184Z,3.03
2022-09-25T19:25:23.983Z,3.03
2022-09-25T19:27:51.549Z,2.75
2022-09-25T19:30:18.609Z,2.70
2022-09-25T19:32:45.712Z,2.88
2022-09-25T19:35:13.518Z,3.33
2022-09-25T19:37:42.990Z,3.70
2022-09-25T19:40:29.528Z,2.97
2022-09-25T19:42:58.021Z,3.30
2022-09-25T19:45:25.068Z,3.95
2022-09-25T19:47:52.156Z,3.53
2022-09-25T19:50:19.310Z,3.60
2022-09-25T19:52:50.769Z,3.88
2022-09-25T19:55:18.415Z,4.22
2022-09-25T19:57:46.157Z,3.65
2022-09-25T20:00:17.348Z,4.13
2022-09-25T20:02:47.819Z,3.90
2022-09-25T20:05:16.600Z,4.97
2022-09-25T20:07:43.957Z,5.20
2022-09-25T20:10:11.162Z,5.20
2022-09-25T20:12:38.561Z,5.00
2022-09-25T20:15:06.155Z,5.43
2022-09-25T20:17:33.485Z,5.40
2022-09-25T20:20:02.577Z,5.40
2022-09-25T20:22:31.577Z,5.13
2022-09-25T20:24:58.974Z,6.13
2022-09-25T20:27:26.362Z,6.05
2022-09-25T20:29:53.541Z,5.63
2022-09-25T20:32:20.490Z,5.70
2022-09-25T20:34:47.524Z,5.85
2022-09-25T20:37:14.739Z,5.60
2022-09-25T20:39:42.951Z,6.45
2022-09-25T20:42:10.841Z,6.10
2022-09-25T20:44:41.395Z,6.15
2022-09-25T20:47:08.901Z,6.47
2022-09-25T20:49:36.842Z,6.47
2022-09-25T20:52:04.803Z,6.53
2022-09-25T20:54:32.359Z,6.38
2022-09-25T20:56:59.327Z,5.38
2022-09-25T20:59:26.458Z,5.95
2022-09-25T21:01:54.086Z,5.82
2022-09-25T21:04:21.572Z,5.85
2022-09-25T21:06:49.061Z,5.50
2022-09-25T21:09:27.204Z,6.38
2022-09-25T21:11:55.144Z,5.78
2022-09-25T21:14:25.887Z,6.00
2022-09-25T21:16:53.531Z,6.25
2022-09-25T21:19:23.150Z,6.70
2022-09-25T21:21:51.000Z,6.40
2022-09-25T21:24:20.735Z,6.40
2022-09-25T21:26:48.218Z,6.82
2022-09-25T21:29:16.414Z,6.80
2022-09-25T21:31:49.409Z,6.05
2022-09-25T21:34:18.260Z,6.55
2022-09-25T21:36:45.635Z,6.63
2022-09-25T21:39:13.376Z,6.05
2022-09-25T21:41:40.651Z,6.57
2022-09-25T21:44:13.250Z,5.90
2022-09-25T21:46:40.460Z,6.20
2022-09-25T21:49:08.404Z,6.22
2022-09-25T21:51:38.489Z,7.78
2022-09-25T21:54:07.683Z,7.43
2022-09-25T21:56:34.697Z,7.10
2022-09-25T21:59:08.441Z,6.13
2022-09-25T22:01:38.764Z,6.45
2022-09-25T22:04:07.734Z,6.00
2022-09-25T22:06:37.523Z,6.38
2022-09-25T22:09:10.945Z,5.47
2022-09-25T22:11:39.114Z,6.13
2022-09-25T22:14:08.094Z,6.03
2022-09-25T22:16:39.644Z,6.05
2022-09-25T22:19:10.825Z,6.22
2022-09-25T22:21:38.735Z,6.13
2022-09-25T22:24:06.256Z,5.78
2022-09-25T22:26:35.702Z,6.00
2022-09-25T22:29:02.691Z,6.97
2022-09-25T22:31:31.586Z,5.88
2022-09-25T22:34:04.309Z,6.50
2022-09-25T22:36:32.094Z,6.72
2022-09-25T22:38:59.061Z,6.63
2022-09-25T22:41:26.129Z,6.50
2022-09-25T22:43:54.603Z,5.88
2022-09-25T22:46:23.857Z,6.25
2022-09-25T22:48:51.728Z,6.40
2022-09-25T22:51:21.950Z,6.78
2022-09-25T22:53:49.836Z,6.65
2022-09-25T22:56:27.486Z,6.88
2022-09-25T22:58:57.700Z,7.28
2022-09-25T23:01:37.066Z,7.45
2022-09-25T23:04:07.555Z,6.70
2022-09-25T23:06:35.669Z,7.80
2022-09-25T23:09:12.175Z,7.47
2022-09-25T23:11:39.709Z,8.52
2022-09-25T23:14:10.986Z,7.10
2022-09-25T23:16:38.567Z,8.10
2022-09-25T23:19:05.788Z,7.47
2022-09-25T23:21:33.001Z,7.95
2022-09-25T23:24:02.585Z,7.70
2022-09-25T23:26:30.516Z,7.80
2022-09-25T23:28:58.997Z,8.45
2022-09-25T23:31:26.446Z,8.70
2022-09-25T23:33:53.382Z,7.82
2022-09-25T23:36:22.158Z,8.48
2022-09-25T23:38:50.743Z,9.55
2022-09-25T23:41:20.047Z,9.05
2022-09-25T23:43:48.643Z,8.85
2022-09-25T23:46:17.337Z,9.75
2022-09-25T23:48:44.916Z,9.20
2022-09-25T23:51:13.508Z,8.38
2022-09-25T23:53:42.566Z,8.88
2022-09-25T23:56:15.059Z,7.70
2022-09-25T23:58:42.452Z,7.60
